Data for 05/02/2009

Time Sea-Level Adjusted Pressure Absolute Pressure Temperature Relative Humidity Dew Point   
(mb) (inHg) (mb) (inHg) (C) (F) (%) (C) (F)
00:05 1019 30.09 848 25.04 2.6 36.6 60 -4.3 24.2
00:10 1018 30.06 848 25.04 2.5 36.5 60 -4.4 24
00:15 1018 30.06 848 25.04 2.5 36.6 59 -4.6 23.7
00:20 1018 30.06 848 25.04 2.8 37 59 -4.5 23.8
00:25 1018 30.06 848 25.04 2.8 37.1 58 -4.7 23.6
00:30 1018 30.06 848 25.04 2.9 37.3 57 -4.7 23.6
00:35 1018 30.06 848 25.04 3 37.3 57 -4.7 23.5
00:40 1018 30.06 848 25.04 3 37.3 57 -4.6 23.7
00:45 1018 30.06 847 25.01 3 37.3 57 -4.8 23.4
00:50 1018 30.06 847 25.01 2.9 37.3 57 -4.7 23.5
00:55 1018 30.06 847 25.01 2.9 37.2 57 -4.8 23.3
01:00 1018 30.06 847 25.01 2.9 37.3 57 -4.9 23.2
01:05 1018 30.06 847 25.01 2.9 37.2 57 -4.8 23.4
01:10 1018 30.06 847 25.01 2.8 37 57 -4.8 23.4
01:15 1018 30.06 847 25.01 2.8 37 57 -5 23.1
01:20 1018 30.06 847 25.01 2.8 37 57 -4.8 23.3
01:25 1018 30.06 847 25.01 2.7 36.9 57 -5 23
01:30 1018 30.06 847 25.01 2.8 37 57 -4.8 23.3
01:35 1018 30.06 847 25.01 2.5 36.5 59 -4.8 23.4
01:40 1018 30.06 847 25.01 2.4 36.4 59 -4.8 23.3
01:45 1018 30.06 847 25.01 2.2 36 60 -4.8 23.4
01:50 1018 30.06 847 25.01 2.4 36.2 58 -5 22.9
01:55 1018 30.06 847 25.01 2.5 36.5 58 -5 23
02:00 1018 30.06 847 25.01 2.5 36.5 58 -4.8 23.3
02:05 1018 30.06 847 25.01 2.5 36.4 58 -5 23.1
02:10 1018 30.06 847 25.01 2.5 36.4 58 -4.9 23.1
02:15 1018 30.06 847 25.01 2.4 36.3 58 -5 23
02:20 1018 30.06 847 25.01 2.3 36.2 59 -4.8 23.3
02:25 1018 30.06 847 25.01 2.2 35.9 60 -4.8 23.3
02:30 1018 30.06 847 25.01 2.1 35.7 60 -5 23.1
02:35 1018 30.06 847 25.01 2 35.7 59 -5 22.9
02:40 1018 30.06 847 25.01 2 35.6 59 -5.2 22.7
02:45 1018 30.06 847 25.01 2 35.6 60 -4.9 23.2
02:50 1018 30.06 847 25.01 1.8 35.2 60 -5.1 22.7
02:55 1018 30.06 847 25.01 1.7 35.1 61 -5 23.1
03:00 1018 30.06 847 25.01 1.6 34.9 61 -5 23
03:05 1018 30.06 847 25.01 1.5 34.7 62 -5 23.1
03:10 1018 30.06 847 25.01 1.5 34.7 61 -5.2 22.7
03:15 1018 30.06 847 25.01 1.5 34.7 62 -5 23.1
03:20 1017 30.03 847 25.01 1.4 34.6 62 -5.1 22.9
03:25 1017 30.03 847 25.01 1.5 34.8 61 -5.2 22.7
03:30 1017 30.03 847 25.01 1.6 34.8 62 -5 23
03:35 1017 30.03 847 25.01 1.4 34.6 62 -5.1 22.8
03:40 1017 30.03 847 25.01 1.4 34.5 63 -5 23
03:45 1017 30.03 847 25.01 1.3 34.3 63 -5 23
03:50 1017 30.03 846 24.98 1.3 34.3 63 -5 23.1
03:55 1017 30.03 846 24.98 1.3 34.3 63 -5.1 22.9
04:00 1017 30.03 846 24.98 1.2 34.1 64 -4.9 23.2
04:05 1017 30.03 846 24.98 1 33.7 65 -4.8 23.3
04:10 1017 30.03 846 24.98 0.9 33.6 65 -4.9 23.2
04:15 1017 30.03 846 24.98 0.9 33.6 65 -5 23.1
04:20 1017 30.03 846 24.98 0.9 33.6 65 -5.1 22.9
04:25 1017 30.03 846 24.98 0.8 33.4 65 -5 23
04:30 1017 30.03 846 24.98 0.7 33.2 67 -4.8 23.3
04:35 1017 30.03 846 24.98 0.6 33 67 -4.9 23.1
04:40 1017 30.03 846 24.98 0.4 32.7 67 -5 23
04:45 1017 30.03 846 24.98 0.2 32.4 68 -5 23
04:50 1017 30.03 846 24.98 0.1 32.2 69 -5 23.1
04:55 1017 30.03 846 24.98 0 32.1 69 -4.9 23.1
05:00 1017 30.03 846 24.98 -0.1 31.9 70 -4.9 23.2
05:05 1017 30.03 846 24.98 -0 31.9 70 -4.9 23.2
05:10 1017 30.03 846 24.98 -0.1 31.9 72 -4.6 23.7
05:15 1017 30.03 846 24.98 -0.2 31.7 73 -4.4 24
05:20 1017 30.03 846 24.98 -0.3 31.4 75 -4.3 24.3
05:25 1017 30.03 846 24.98 -0.4 31.3 75 -4.4 24.2
05:30 1017 30.03 846 24.98 -0.4 31.2 73 -4.6 23.7
05:35 1017 30.03 846 24.98 -0.3 31.5 72 -4.7 23.6
05:40 1017 30.03 846 24.98 -0.1 31.7 71 -4.8 23.4
05:45 1017 30.03 846 24.98 -0 32 70 -4.9 23.2
05:50 1016 30 846 24.98 0.1 32.1 70 -4.8 23.4
05:55 1016 30 846 24.98 0.1 32.1 69 -4.9 23.2
06:00 1016 30 846 24.98 0.2 32.3 68 -5.1 22.8
06:05 1016 30 846 24.98 0.3 32.5 68 -5 23
06:10 1016 30 846 24.98 0.2 32.3 68 -5 23
06:15 1016 30 846 24.98 0 32.1 69 -5 23
06:20 1016 30 846 24.98 -0 32 69 -5.1 22.9
06:25 1016 30 845 24.95 0 32 69 -5.1 22.8
06:30 1016 30 845 24.95 0.1 32.2 68 -5.1 22.8
06:35 1016 30 845 24.95 0.2 32.4 68 -5.1 22.9
06:40 1016 30 845 24.95 0.4 32.7 67 -5 22.9
06:45 1016 30 845 24.95 0.6 33.1 66 -5 23.1
06:50 1016 30 845 24.95 0.8 33.5 66 -4.8 23.4
06:55 1016 30 845 24.95 1.1 34 65 -4.7 23.5
07:00 1016 30 845 24.95 1.3 34.3 65 -4.6 23.7
07:05 1016 30 845 24.95 1.3 34.4 67 -4.2 24.4
07:10 1016 30 845 24.95 1.2 34.1 67 -4.3 24.3
07:15 1016 30 845 24.95 1.1 34 68 -4.2 24.4
07:20 1016 30 845 24.95 1.3 34.3 67 -4.1 24.6
07:25 1016 30 845 24.95 1.5 34.6 67 -4.1 24.6
07:30 1016 30 845 24.95 1.8 35.2 65 -4 24.7
07:35 1016 30 845 24.95 2 35.6 63 -4.2 24.4
07:40 1016 30 846 24.98 2.3 36.2 63 -4.1 24.6
07:45 1016 30 846 24.98 3 37.4 59 -4.1 24.6
07:50 1016 30 845 24.95 3.3 38 58 -4.2 24.5
07:55 1016 30 845 24.95 3.2 37.7 58 -4.2 24.4
08:00 1016 30 845 24.95 3 37.5 57 -4.7 23.5
08:05 1016 30 845 24.95 3.1 37.7 57 -4.6 23.7
08:10 1016 30 845 24.95 3.3 38 55 -4.8 23.4
08:15 1016 30 845 24.95 3.5 38.2 56 -4.6 23.8
08:20 1016 30 845 24.95 3.4 38.1 55 -4.7 23.5
08:25 1016 30 845 24.95 3.8 38.9 54 -4.6 23.7
08:30 1016 30 845 24.95 3.8 38.8 54 -4.6 23.8
08:35 1016 30 845 24.95 4.3 39.7 54 -4.2 24.4
08:40 1016 30 845 24.95 5.1 41.1 51 -4.2 24.5
08:45 1016 30 845 24.95 4.7 40.5 54 -3.9 25
08:50 1016 30 845 24.95 4.5 40.1 53 -4.3 24.3
08:55 1016 30 845 24.95 5.1 41.1 52 -4 24.8
09:00 1016 30 845 24.95 5.3 41.5 53 -3.4 25.8
09:05 1016 30 845 24.95 5.6 42.1 50 -3.9 25
09:10 1016 30 845 24.95 6 42.8 52 -3.1 26.4
09:15 1016 30 845 24.95 5.7 42.2 52 -3.5 25.6
09:20 1016 30 845 24.95 5.5 41.9 52 -3.5 25.8
09:25 1016 30 845 24.95 4.8 40.6 57 -3 26.5
09:30 1016 30 845 24.95 4.2 39.6 56 -3.8 25.2
09:35 1016 30 845 24.95 4.4 40 57 -3.4 25.9
09:40 1016 30 845 24.95 4.8 40.6 55 -3.5 25.8
09:45 1016 30 845 24.95 5.7 42.3 50 -3.8 25.2
09:50 1016 30 845 24.95 5.9 42.6 54 -2.8 27
09:55 1016 30 845 24.95 5.9 42.5 52 -3.3 26
10:00 1016 30 845 24.95 6.5 43.8 49 -3.3 26.1
10:05 1016 30 845 24.95 6.8 44.2 49 -3 26.6
10:10 1016 30 845 24.95 6.3 43.3 52 -2.9 26.8
10:15 1016 30 845 24.95 6.9 44.3 47 -3.7 25.3
10:20 1016 30 845 24.95 7.4 45.3 47 -3.2 26.3
10:25 1016 30 845 24.95 6.1 42.9 50 -3.5 25.7
10:30 1016 30 845 24.95 7.1 44.8 48 -3.3 26.1
10:35 1016 30 845 24.95 7.5 45.5 48 -2.9 26.8
10:40 1016 30 845 24.95 7.3 45.1 49 -2.9 26.9
10:45 1016 30 845 24.95 7.3 45.1 50 -2.4 27.6
10:50 1016 30 845 24.95 8.1 46.7 47 -2.5 27.5
10:55 1016 30 845 24.95 8.5 47.4 46 -2.2 28
11:00 1016 30 845 24.95 8.6 47.4 46 -2.4 27.6
11:05 1016 30 845 24.95 8.6 47.5 48 -1.9 28.6
11:10 1016 30 845 24.95 8.2 46.7 47 -2.4 27.7
11:15 1016 30 845 24.95 9 48.2 44 -2.5 27.5
11:20 1016 30 845 24.95 8.9 48.1 44 -2.5 27.4
11:25 1016 30 845 24.95 9.2 48.5 44 -2.6 27.4
11:30 1016 30 845 24.95 9.3 48.8 44 -2.2 28
11:35 1016 30 845 24.95 9.9 49.9 40 -3.1 26.4
11:40 1016 30 845 24.95 10.3 50.5 45 -1 30.1
11:45 1016 30 845 24.95 9.8 49.7 42 -2.3 27.8
11:50 1016 30 845 24.95 9.7 49.4 41 -2.9 26.8
11:55 1016 30 845 24.95 10.3 50.5 41 -2.4 27.6
12:00 1016 30 845 24.95 10.6 51 41 -2.1 28.2
12:05 1016 30 845 24.95 10.4 50.7 40 -2.7 27.2
12:10 1016 30 845 24.95 10 49.9 41 -2.6 27.3
12:15 1016 30 845 24.95 9.7 49.5 42 -2.6 27.3
12:20 1016 30 845 24.95 10.2 50.4 42 -2.2 28.1
12:25 1015 29.97 845 24.95 10.5 51 40 -2.5 27.4
12:30 1015 29.97 845 24.95 11.9 53.3 40 -1.4 29.5
12:35 1015 29.97 844 24.92 12.1 53.8 36 -2.6 27.3
12:40 1015 29.97 844 24.92 12.1 53.8 36 -2.5 27.5
12:45 1015 29.97 844 24.92 12.3 54.2 37 -1.9 28.6
12:50 1015 29.97 844 24.92 10.4 50.7 41 -2.1 28.2
12:55 1015 29.97 844 24.92 10.1 50.2 42 -2.1 28.2
13:00 1015 29.97 844 24.92 10.4 50.7 39 -2.9 26.8
13:05 1015 29.97 844 24.92 11.5 52.7 39 -1.8 28.8
13:10 1015 29.97 844 24.92 11.4 52.4 36 -3.2 26.2
13:15 1015 29.97 844 24.92 11.6 52.8 34 -3.5 25.6
13:20 1015 29.97 844 24.92 11.8 53.3 32 -4.4 24
13:25 1015 29.97 844 24.92 11.9 53.4 34 -3.3 26
13:30 1015 29.97 844 24.92 11.9 53.5 33 -3.7 25.3
13:35 1015 29.97 844 24.92 11.6 52.8 35 -3.5 25.7
13:40 1015 29.97 844 24.92 11.1 52 35 -3.9 25.1
13:45 1015 29.97 844 24.92 11.1 52 35 -3.9 25
13:50 1015 29.97 844 24.92 11.4 52.5 37 -2.6 27.4
13:55 1015 29.97 844 24.92 11.5 52.6 34 -3.9 25
14:00 1015 29.97 844 24.92 11.4 52.6 35 -3.3 26
14:05 1014 29.94 844 24.92 11.8 53.3 34 -3.6 25.5
14:10 1014 29.94 844 24.92 11.9 53.4 32 -4.2 24.5
14:15 1014 29.94 844 24.92 11.7 53.1 32 -4.2 24.4
14:20 1014 29.94 844 24.92 11.6 52.9 31 -4.9 23.1
14:25 1014 29.94 843 24.89 11.5 52.7 30 -5.5 22.2
14:30 1014 29.94 843 24.89 11.5 52.8 31 -4.8 23.3
14:35 1014 29.94 843 24.89 11.9 53.4 29 -5.4 22.4
14:40 1014 29.94 843 24.89 12 53.5 30 -5.2 22.7
14:45 1014 29.94 843 24.89 11.5 52.7 31 -5.1 22.9
14:50 1014 29.94 843 24.89 11.6 52.9 31 -4.9 23.2
14:55 1014 29.94 843 24.89 12.1 53.9 31 -4.6 23.7
15:00 1014 29.94 843 24.89 12.4 54.3 30 -4.9 23.2
15:05 1014 29.94 843 24.89 12.3 54.2 30 -4.6 23.7
15:10 1014 29.94 843 24.89 12.5 54.5 30 -4.6 23.8
15:15 1014 29.94 843 24.89 12.3 54.1 31 -4.4 24
15:20 1014 29.94 843 24.89 11.9 53.4 30 -4.9 23.1
15:25 1014 29.94 843 24.89 11.9 53.4 31 -4.7 23.5
15:30 1014 29.94 843 24.89 12 53.7 31 -4.4 24.1
15:35 1014 29.94 843 24.89 12.2 54 31 -4.4 24.2
15:40 1014 29.94 843 24.89 12.2 53.9 30 -4.9 23.1
15:45 1014 29.94 843 24.89 12.4 54.3 30 -4.7 23.6
15:50 1014 29.94 843 24.89 12.4 54.2 30 -4.7 23.5
15:55 1014 29.94 843 24.89 12.5 54.5 30 -4.8 23.4
16:00 1014 29.94 843 24.89 12.4 54.4 30 -4.7 23.6
16:05 1014 29.94 843 24.89 12.7 54.8 29 -4.8 23.3
16:10 1014 29.94 843 24.89 12.4 54.4 30 -4.7 23.5
16:15 1014 29.94 843 24.89 12.3 54.2 31 -4.2 24.5
16:20 1014 29.94 843 24.89 12.4 54.3 33 -3.4 26
16:25 1014 29.94 843 24.89 12.5 54.4 33 -3.5 25.7
16:30 1014 29.94 843 24.89 12.6 54.6 33 -3.3 26
16:35 1013 29.91 843 24.89 12.5 54.6 32 -3.6 25.6
16:40 1013 29.91 843 24.89 12.6 54.8 32 -3.4 25.9
16:45 1013 29.91 843 24.89 12.9 55.2 34 -2.7 27.1
16:50 1013 29.91 843 24.89 12.8 55.1 32 -3.4 25.9
16:55 1013 29.91 843 24.89 12.4 54.2 33 -3.5 25.8
17:00 1013 29.91 843 24.89 12.4 54.3 33 -3.3 26.1
17:05 1013 29.91 843 24.89 12.2 53.9 34 -3.3 26.1
17:10 1013 29.91 843 24.89 12 53.6 34 -3.1 26.4
17:15 1013 29.91 843 24.89 12.1 53.7 35 -3 26.6
17:20 1013 29.91 843 24.89 11.8 53.2 35 -3.1 26.5
17:25 1013 29.91 843 24.89 11.8 53.2 35 -3.3 26.1
17:30 1013 29.91 843 24.89 11.8 53.2 34 -3.5 25.8
17:35 1013 29.91 843 24.89 11.7 53 34 -3.7 25.4
17:40 1013 29.91 843 24.89 11.6 52.8 35 -3.2 26.2
17:45 1014 29.94 843 24.89 11.6 52.8 36 -2.9 26.8
17:50 1013 29.91 843 24.89 11.7 53 36 -2.7 27.2
17:55 1014 29.94 843 24.89 11.9 53.4 36 -2.7 27.2
18:00 1014 29.94 843 24.89 11.6 52.9 36 -3.1 26.4
18:05 1014 29.94 843 24.89 11.7 53 35 -3.2 26.3
18:10 1014 29.94 843 24.89 11.7 53.1 37 -2.6 27.3
18:15 1014 29.94 843 24.89 11.6 52.8 36 -3 26.6
18:20 1014 29.94 843 24.89 11.4 52.5 36 -3 26.5
18:25 1014 29.94 843 24.89 11.4 52.4 36 -3.1 26.4
18:30 1014 29.94 843 24.89 11.3 52.3 36 -3.2 26.3
18:35 1014 29.94 843 24.89 11.3 52.3 37 -2.9 26.8
18:40 1014 29.94 843 24.89 11.3 52.3 38 -2.4 27.6
18:45 1014 29.94 843 24.89 11.2 52.1 38 -2.6 27.4
18:50 1014 29.94 843 24.89 11.1 52 38 -2.6 27.3
18:55 1014 29.94 843 24.89 11.1 51.9 37 -2.8 26.9
19:00 1014 29.94 843 24.89 11 51.8 38 -2.6 27.3
19:05 1014 29.94 843 24.89 10.9 51.6 39 -2.5 27.5
19:10 1014 29.94 843 24.89 10.8 51.5 39 -2.6 27.3
19:15 1014 29.94 843 24.89 10.8 51.4 39 -2.6 27.3
19:20 1014 29.94 843 24.89 10.8 51.4 40 -2.4 27.7
19:25 1014 29.94 843 24.89 10.6 51.1 39 -2.8 27
19:30 1014 29.94 843 24.89 10.6 51 40 -2.5 27.4
19:35 1014 29.94 843 24.89 10.5 50.9 40 -2.5 27.4
19:40 1014 29.94 843 24.89 10.3 50.6 41 -2.5 27.6
19:45 1014 29.94 843 24.89 10.3 50.5 40 -2.6 27.4
19:50 1014 29.94 843 24.89 10.2 50.4 40 -2.7 27.2
19:55 1014 29.94 843 24.89 10.1 50.2 40 -2.9 26.8
20:00 1014 29.94 843 24.89 10 50 40 -2.8 27
20:05 1014 29.94 843 24.89 9.9 49.8 41 -2.6 27.3
20:10 1014 29.94 843 24.89 9.8 49.6 42 -2.6 27.3
20:15 1014 29.94 843 24.89 9.7 49.4 42 -2.6 27.3
20:20 1014 29.94 843 24.89 9.6 49.2 43 -2.5 27.6
20:25 1014 29.94 843 24.89 9.5 49.1 43 -2.5 27.5
20:30 1014 29.94 843 24.89 9.4 48.8 44 -2.3 27.9
20:35 1014 29.94 843 24.89 9.2 48.6 44 -2.2 28
20:40 1014 29.94 843 24.89 9.1 48.4 44 -2.4 27.6
20:45 1014 29.94 843 24.89 9 48.3 45 -2.3 27.8
20:50 1014 29.94 843 24.89 8.9 48.1 45 -2.3 27.9
20:55 1014 29.94 843 24.89 8.8 47.9 46 -2.2 28
21:00 1014 29.94 843 24.89 8.8 47.8 46 -2.2 28
21:05 1014 29.94 843 24.89 8.7 47.6 46 -2.2 28
21:10 1014 29.94 843 24.89 8.6 47.5 46 -2.3 27.8
21:15 1014 29.94 843 24.89 8.6 47.5 46 -2.5 27.6
21:20 1014 29.94 844 24.92 8.6 47.5 46 -2.4 27.7
21:25 1014 29.94 844 24.92 8.6 47.4 46 -2.4 27.7
21:30 1015 29.97 844 24.92 8.6 47.4 46 -2.4 27.6
21:35 1015 29.97 844 24.92 8.6 47.5 45 -2.5 27.4
21:40 1015 29.97 844 24.92 8.6 47.4 46 -2.4 27.7
21:45 1015 29.97 844 24.92 8.5 47.3 46 -2.4 27.7
21:50 1015 29.97 844 24.92 8.5 47.2 46 -2.4 27.7
21:55 1015 29.97 844 24.92 8.4 47.2 46 -2.5 27.4
22:00 1015 29.97 844 24.92 8.4 47.1 46 -2.5 27.5
22:05 1015 29.97 844 24.92 8.4 47.1 46 -2.4 27.7
22:10 1015 29.97 844 24.92 8.4 47 46 -2.6 27.4
22:15 1015 29.97 844 24.92 8.3 47 46 -2.5 27.5
22:20 1015 29.97 844 24.92 8.4 47.1 45 -2.8 27
22:25 1015 29.97 844 24.92 8.4 47.1 45 -2.9 26.8
22:30 1015 29.97 844 24.92 8.3 47 45 -2.9 26.7
22:35 1015 29.97 844 24.92 8.3 47 45 -2.9 26.8
22:40 1015 29.97 844 24.92 8.3 46.9 45 -2.9 26.8
22:45 1015 29.97 844 24.92 8.3 46.9 46 -2.7 27.2
22:50 1015 29.97 844 24.92 8.2 46.8 46 -2.8 26.9
22:55 1015 29.97 844 24.92 8.2 46.8 45 -2.9 26.8
23:00 1015 29.97 844 24.92 8.2 46.7 47 -2.6 27.4
23:05 1015 29.97 844 24.92 8.1 46.6 46 -2.7 27.1
23:10 1015 29.97 844 24.92 8.1 46.5 46 -2.8 27
23:15 1015 29.97 844 24.92 8.1 46.5 47 -2.7 27.2
23:20 1015 29.97 844 24.92 8 46.5 47 -2.7 27.1
23:25 1015 29.97 844 24.92 8 46.4 47 -2.7 27.1
23:30 1015 29.97 844 24.92 7.9 46.2 48 -2.5 27.5
23:35 1015 29.97 844 24.92 7.8 46.1 47 -2.8 26.9
23:40 1015 29.97 844 24.92 7.8 46 48 -2.6 27.3
23:45 1015 29.97 844 24.92 7.7 45.9 48 -2.5 27.5
23:50 1015 29.97 844 24.92 7.6 45.7 49 -2.4 27.7
23:55 1015 29.97 844 24.92 7.5 45.5 49 -2.4 27.7
24:00 1015 29.97 844 24.92 7.5 45.6 48 -2.7 27.2